Time;durP1;ratioP1;P1;durP2;ratioP2;P2;SDS_P1;SDS_P2;PMS_P1;PMS_P2;Temp;Humidity;BMP_temperature;BMP_pressure;BME280_temperature;BME280_humidity;BME280_pressure;Samples;Min_cycle;Max_cycle;Signal;HPM_P1;HPM_P2
2021/06/25 00:02:02;;;;;;;2.10;2.00;;;16.00;99.90;;;;;;4972456;28;20452;-92
2021/06/25 00:04:30;;;;;;;2.70;2.50;;;15.90;99.90;;;;;;4987863;28;21160;-92
2021/06/25 00:06:56;;;;;;;4.40;2.77;;;15.90;99.90;;;;;;4971804;28;20452;-90
2021/06/25 00:09:23;;;;;;;2.97;2.50;;;15.90;99.90;;;;;;4988777;28;20445;-89
2021/06/25 00:11:49;;;;;;;2.20;2.10;;;15.90;99.90;;;;;;4969567;28;20237;-91
2021/06/25 00:14:20;;;;;;;2.80;1.97;;;15.90;99.90;;;;;;4987694;28;21271;-89
2021/06/25 00:16:46;;;;;;;3.20;1.83;;;15.80;99.90;;;;;;4970244;28;20209;-90
2021/06/25 00:19:14;;;;;;;2.40;2.00;;;15.80;99.90;;;;;;4967921;28;20429;-90
2021/06/25 00:21:41;;;;;;;2.43;2.20;;;15.80;99.90;;;;;;4985307;28;20468;-90
2021/06/25 00:24:07;;;;;;;2.97;2.33;;;15.80;99.90;;;;;;4987996;28;20901;-90
2021/06/25 00:26:32;;;;;;;2.17;2.07;;;15.80;99.90;;;;;;4972649;28;20460;-90
2021/06/25 00:28:58;;;;;;;1.87;1.77;;;15.80;99.90;;;;;;4969192;28;20316;-89
2021/06/25 00:31:24;;;;;;;1.93;1.83;;;15.80;99.90;;;;;;4967896;28;20415;-90
2021/06/25 00:33:55;;;;;;;1.83;1.73;;;15.80;99.90;;;;;;4988730;28;20328;-90
2021/06/25 00:36:23;;;;;;;1.93;1.70;;;15.80;99.90;;;;;;4972028;28;20223;-89
2021/06/25 00:38:57;;;;;;;2.00;1.90;;;15.80;99.90;;;;;;4970962;28;20536;-89
2021/06/25 00:41:25;;;;;;;2.27;1.77;;;15.80;99.90;;;;;;4968237;28;20836;-90
2021/06/25 00:43:51;;;;;;;3.03;2.07;;;15.80;99.90;;;;;;4975604;28;20200;-90
2021/06/25 00:46:17;;;;;;;2.10;1.87;;;15.70;99.90;;;;;;4971081;28;21701;-90
2021/06/25 00:48:43;;;;;;;2.77;1.80;;;15.60;99.90;;;;;;4975022;28;20722;-91
2021/06/25 00:51:12;;;;;;;2.10;1.70;;;15.70;99.90;;;;;;4975068;28;20264;-90
2021/06/25 00:53:41;;;;;;;2.77;2.20;;;15.70;99.90;;;;;;4973154;28;20708;-89
2021/06/25 00:56:06;;;;;;;2.27;1.83;;;15.70;99.90;;;;;;4970831;28;20919;-89
2021/06/25 00:58:32;;;;;;;2.30;2.10;;;15.60;99.90;;;;;;4992014;28;20520;-89
2021/06/25 01:01:09;;;;;;;2.03;1.93;;;15.60;99.90;;;;;;4965113;28;20683;-89
2021/06/25 01:03:35;;;;;;;2.50;2.30;;;15.60;99.90;;;;;;4971281;28;20184;-89
2021/06/25 01:06:03;;;;;;;2.33;2.13;;;15.60;99.90;;;;;;4971228;28;20452;-89
2021/06/25 01:08:29;;;;;;;2.10;2.00;;;15.50;99.90;;;;;;4972597;28;20461;-89
2021/06/25 01:10:55;;;;;;;2.03;1.93;;;15.50;99.90;;;;;;4985058;28;20480;-89
2021/06/25 01:13:21;;;;;;;2.90;2.10;;;15.50;99.90;;;;;;4973855;28;20545;-89
2021/06/25 01:15:47;;;;;;;2.50;2.30;;;15.50;99.90;;;;;;4976058;28;20243;-90
2021/06/25 01:18:13;;;;;;;3.87;2.10;;;15.50;99.90;;;;;;4991434;28;20965;-90
2021/06/25 01:20:41;;;;;;;2.63;2.43;;;15.50;99.90;;;;;;4988367;28;20213;-93
2021/06/25 01:23:07;;;;;;;4.10;2.43;;;15.50;99.90;;;;;;4990876;28;20264;-91
2021/06/25 01:25:43;;;;;;;2.70;2.50;;;15.40;99.90;;;;;;4971950;28;20519;-89
2021/06/25 01:28:12;;;;;;;3.70;2.60;;;15.40;99.90;;;;;;4958597;28;20279;-92
2021/06/25 01:30:43;;;;;;;3.30;2.90;;;15.50;99.90;;;;;;4971017;28;20481;-91
2021/06/25 01:33:17;;;;;;;3.10;2.80;;;15.40;99.90;;;;;;4972911;28;20447;-90
2021/06/25 01:35:52;;;;;;;3.13;2.30;;;15.40;99.90;;;;;;4976851;28;20457;-91
2021/06/25 01:38:18;;;;;;;2.80;2.60;;;15.50;99.90;;;;;;4992434;28;20452;-92
2021/06/25 01:40:45;;;;;;;4.90;2.87;;;15.40;99.90;;;;;;4972169;28;21720;-92
2021/06/25 01:43:12;;;;;;;3.30;3.00;;;15.40;99.90;;;;;;4974672;28;20198;-91
2021/06/25 01:45:39;;;;;;;3.67;2.83;;;15.40;99.90;;;;;;4987755;28;20453;-92
2021/06/25 01:48:06;;;;;;;3.30;3.00;;;15.40;99.90;;;;;;4977318;28;20542;-91
2021/06/25 01:50:39;;;;;;;3.20;2.50;;;15.40;99.90;;;;;;4972511;28;21180;-90
2021/06/25 01:53:09;;;;;;;2.90;2.70;;;15.40;99.90;;;;;;4975270;28;20488;-91
2021/06/25 01:55:39;;;;;;;3.23;2.93;;;15.40;99.90;;;;;;4973738;28;20468;-90
2021/06/25 01:58:19;;;;;;;3.70;3.50;;;15.30;99.90;;;;;;4969675;28;20483;-91
2021/06/25 02:01:09;;;;;;;4.33;3.93;;;15.30;99.90;;;;;;4990567;28;20457;-89
2021/06/25 02:03:36;;;;;;;3.57;3.27;;;15.40;99.90;;;;;;4981245;28;21084;-91
2021/06/25 02:06:02;;;;;;;3.20;2.87;;;15.40;99.90;;;;;;4991259;28;20547;-90
2021/06/25 02:08:27;;;;;;;4.03;3.27;;;15.40;99.90;;;;;;4986954;28;20937;-91
2021/06/25 02:10:53;;;;;;;3.07;2.87;;;15.40;99.90;;;;;;4977454;28;20628;-90
2021/06/25 02:13:19;;;;;;;3.20;2.90;;;15.40;99.90;;;;;;4987254;28;20190;-90
2021/06/25 02:15:45;;;;;;;3.47;3.17;;;15.40;99.90;;;;;;4970592;28;20285;-90
2021/06/25 02:18:10;;;;;;;2.90;2.70;;;15.40;99.90;;;;;;4975235;28;20848;-90
2021/06/25 02:20:42;;;;;;;2.83;2.63;;;15.40;99.90;;;;;;4971272;28;20213;-90
2021/06/25 02:23:26;;;;;;;3.03;2.83;;;15.40;99.90;;;;;;4966451;28;20206;-90
2021/06/25 02:26:01;;;;;;;3.30;3.00;;;15.40;99.90;;;;;;4972195;28;20461;-90
2021/06/25 02:28:27;;;;;;;3.00;2.80;;;15.30;99.90;;;;;;4973877;28;20441;-89
2021/06/25 02:30:54;;;;;;;4.00;2.87;;;15.40;99.90;;;;;;4969054;28;21041;-90
2021/06/25 02:33:22;;;;;;;3.23;2.90;;;15.40;99.90;;;;;;4970659;28;20519;-90
2021/06/25 02:35:48;;;;;;;2.97;2.77;;;15.40;99.90;;;;;;4974499;28;20819;-89
2021/06/25 02:38:15;;;;;;;7.97;3.30;;;15.40;99.90;;;;;;4973799;28;20449;-91
2021/06/25 02:40:41;;;;;;;3.10;2.90;;;15.40;99.90;;;;;;4972205;28;20935;-90
2021/06/25 02:43:07;;;;;;;3.07;2.77;;;15.30;99.90;;;;;;4987272;28;20491;-90
2021/06/25 02:45:33;;;;;;;3.40;3.20;;;15.30;99.90;;;;;;4973892;28;20496;-89
2021/06/25 02:47:59;;;;;;;3.17;2.97;;;15.30;99.90;;;;;;4974408;28;20533;-90
2021/06/25 02:50:24;;;;;;;3.23;3.03;;;15.30;99.90;;;;;;4989469;28;20489;-90
2021/06/25 02:52:50;;;;;;;3.40;3.10;;;15.30;99.90;;;;;;4984633;28;20627;-90
2021/06/25 02:55:16;;;;;;;3.23;3.00;;;15.30;99.90;;;;;;4973931;28;20349;-90
2021/06/25 02:57:42;;;;;;;3.13;2.93;;;15.40;99.90;;;;;;4971775;28;20193;-90
2021/06/25 03:00:12;;;;;;;3.33;2.67;;;15.40;99.90;;;;;;4970341;28;21122;-90
2021/06/25 03:02:39;;;;;;;2.77;2.57;;;15.40;99.90;;;;;;4973438;28;21922;-90
2021/06/25 03:05:06;;;;;;;2.90;2.60;;;15.50;99.90;;;;;;4976273;28;21012;-89
2021/06/25 03:07:31;;;;;;;2.60;2.40;;;15.40;99.90;;;;;;4971011;28;20970;-90
2021/06/25 03:09:57;;;;;;;3.00;2.80;;;15.50;99.90;;;;;;4973866;28;20476;-90
2021/06/25 03:12:23;;;;;;;3.07;2.87;;;15.50;99.90;;;;;;4973102;28;20292;-90
2021/06/25 03:14:49;;;;;;;2.70;2.50;;;15.50;99.90;;;;;;4976575;28;20276;-90
2021/06/25 03:17:15;;;;;;;4.33;2.93;;;15.40;99.90;;;;;;4989753;28;20503;-92
2021/06/25 03:19:41;;;;;;;2.80;2.60;;;15.40;99.90;;;;;;4969075;28;20198;-90
2021/06/25 03:22:07;;;;;;;2.57;2.20;;;15.40;99.90;;;;;;4971490;28;20455;-90
2021/06/25 03:24:33;;;;;;;5.80;2.87;;;15.40;99.90;;;;;;4974376;28;20193;-90
2021/06/25 03:26:59;;;;;;;3.13;2.80;;;15.40;99.90;;;;;;4981597;28;20969;-90
2021/06/25 03:29:25;;;;;;;2.87;2.67;;;15.40;99.90;;;;;;4986231;28;20193;-90
2021/06/25 03:31:50;;;;;;;3.80;2.90;;;15.40;99.90;;;;;;4970851;28;20621;-89
2021/06/25 03:34:16;;;;;;;6.27;3.70;;;15.40;99.90;;;;;;4974960;28;20698;-89
2021/06/25 03:36:42;;;;;;;4.60;2.30;;;15.30;99.90;;;;;;4990678;28;20335;-90
2021/06/25 03:39:07;;;;;;;4.17;2.83;;;15.30;99.90;;;;;;4983125;28;20190;-90
2021/06/25 03:41:33;;;;;;;4.60;2.90;;;15.40;99.90;;;;;;4966602;28;20693;-89
2021/06/25 03:43:59;;;;;;;3.90;2.93;;;15.30;99.90;;;;;;4968455;28;20197;-90
2021/06/25 03:46:25;;;;;;;4.83;3.10;;;15.40;99.90;;;;;;4971482;28;20452;-89
2021/06/25 03:48:50;;;;;;;3.47;3.27;;;15.40;99.90;;;;;;4990364;28;20814;-89
2021/06/25 03:51:18;;;;;;;3.00;2.80;;;15.50;99.90;;;;;;4971914;28;20221;-89
2021/06/25 03:53:43;;;;;;;2.90;2.70;;;15.50;99.90;;;;;;4970533;28;20235;-90
2021/06/25 03:56:12;;;;;;;2.87;2.60;;;15.40;99.90;;;;;;4987663;28;20468;-88
2021/06/25 03:58:45;;;;;;;9.90;2.87;;;15.50;99.90;;;;;;4988618;28;20182;-90
2021/06/25 04:01:11;;;;;;;2.57;2.10;;;15.40;99.90;;;;;;4988003;28;20466;-90
2021/06/25 04:03:37;;;;;;;2.70;2.50;;;15.50;99.90;;;;;;4976070;28;20461;-89
2021/06/25 04:06:04;;;;;;;3.73;2.70;;;15.40;99.90;;;;;;4972947;28;20499;-91
2021/06/25 04:08:31;;;;;;;3.57;2.40;;;15.40;99.90;;;;;;4977452;28;20831;-90
2021/06/25 04:11:01;;;;;;;2.60;2.40;;;15.50;99.90;;;;;;4985645;28;20496;-90
2021/06/25 04:13:28;;;;;;;2.40;2.20;;;15.50;99.90;;;;;;4988800;28;20468;-90
2021/06/25 04:15:58;;;;;;;2.53;2.33;;;15.50;99.90;;;;;;4974064;28;20464;-91
2021/06/25 04:18:34;;;;;;;2.87;2.40;;;15.50;99.90;;;;;;4972684;28;20904;-90
2021/06/25 04:21:01;;;;;;;2.57;2.37;;;15.50;99.90;;;;;;4984216;28;20537;-95
2021/06/25 04:23:59;;;;;;;2.50;2.30;;;15.50;99.90;;;;;;4980373;28;20436;-95
2021/06/25 04:27:10;;;;;;;2.13;2.03;;;15.40;99.90;;;;;;4978310;28;20488;-94
2021/06/25 04:30:40;;;;;;;2.63;2.43;;;15.40;99.90;;;;;;4982671;28;20448;-93
2021/06/25 04:34:09;;;;;;;;;;;;;;;;;;;;;
2021/06/25 04:36:53;;;;;;;2.20;2.10;;;15.30;99.90;;;;;;4867961;29;20473;-93
2021/06/25 05:28:28;;;;;;;2.40;2.20;;;15.60;99.90;;;;;;4977440;28;20885;-92
2021/06/25 05:30:54;;;;;;;2.03;1.90;;;15.60;99.90;;;;;;4995325;28;20858;-93
2021/06/25 05:33:20;;;;;;;2.33;2.13;;;15.70;99.90;;;;;;4975036;28;20440;-92
2021/06/25 05:35:49;;;;;;;2.10;2.00;;;15.70;99.90;;;;;;4993595;28;20596;-95
2021/06/25 05:38:16;;;;;;;2.10;1.90;;;15.60;99.90;;;;;;4969336;28;20596;-91
2021/06/25 05:40:45;;;;;;;2.10;1.90;;;15.70;99.90;;;;;;4975784;28;21302;-92
2021/06/25 05:43:14;;;;;;;2.10;2.00;;;15.70;99.90;;;;;;4976995;28;20938;-91
2021/06/25 05:45:41;;;;;;;3.23;1.97;;;15.80;99.90;;;;;;4981057;28;20992;-93
2021/06/25 05:48:09;;;;;;;1.83;1.73;;;15.80;99.90;;;;;;4973485;28;20475;-91
2021/06/25 05:50:37;;;;;;;1.83;1.73;;;15.90;99.90;;;;;;4978374;28;20477;-90
2021/06/25 05:53:07;;;;;;;1.33;1.30;;;15.80;99.90;;;;;;4974811;28;20441;-90
2021/06/25 05:55:33;;;;;;;1.53;1.43;;;15.80;99.90;;;;;;4976288;28;20988;-91
2021/06/25 05:58:00;;;;;;;1.50;1.40;;;15.90;99.90;;;;;;4994572;28;20438;-92
2021/06/25 06:00:26;;;;;;;1.30;1.20;;;15.90;99.90;;;;;;4972496;28;20788;-91
2021/06/25 06:02:55;;;;;;;1.50;1.40;;;15.80;99.90;;;;;;4980639;28;20441;-91
2021/06/25 06:05:21;;;;;;;3.17;1.30;;;15.80;99.90;;;;;;4974007;28;20765;-91
2021/06/25 06:08:10;;;;;;;1.43;1.33;;;15.70;99.90;;;;;;4960484;28;20449;-91
2021/06/25 06:10:38;;;;;;;1.70;1.23;;;15.70;99.90;;;;;;4993202;28;20351;-90
2021/06/25 06:13:04;;;;;;;2.70;1.60;;;15.60;99.90;;;;;;4974765;28;20437;-90
2021/06/25 06:15:31;;;;;;;1.37;1.27;;;15.60;99.90;;;;;;4977903;28;20483;-90
2021/06/25 06:17:58;;;;;;;1.47;1.10;;;15.80;99.90;;;;;;4995848;28;21021;-90
2021/06/25 06:20:26;;;;;;;1.60;1.50;;;15.80;99.90;;;;;;4972123;28;20975;-90
2021/06/25 06:31:23;;;;;;;1.87;1.30;;;16.40;99.90;;;;;;4979525;28;20495;-90
2021/06/25 06:33:55;;;;;;;1.17;0.93;;;16.30;99.90;;;;;;4972215;28;20523;-89
2021/06/25 06:36:32;;;;;;;0.90;0.90;;;16.40;99.90;;;;;;4967036;28;20802;-89
2021/06/25 06:39:00;;;;;;;1.10;1.10;;;16.60;99.90;;;;;;4989442;28;22979;-89
2021/06/25 06:44:58;;;;;;;1.50;1.40;;;16.40;99.90;;;;;;4952925;28;20459;-94
2021/06/25 06:47:29;;;;;;;1.40;1.30;;;16.40;99.90;;;;;;4970482;28;20950;-96
2021/06/25 06:50:19;;;;;;;1.00;1.00;;;16.60;99.90;;;;;;4974515;28;20453;-95
2021/06/25 06:52:54;;;;;;;2.40;2.20;;;16.90;99.90;;;;;;4968938;28;20457;-93
2021/06/25 06:55:25;;;;;;;1.30;1.20;;;16.90;99.90;;;;;;4977640;28;20535;-95
2021/06/25 07:00:43;;;;;;;1.27;1.17;;;16.90;99.90;;;;;;5114542;23;20504;-93
2021/06/25 07:03:12;;;;;;;1.00;1.00;;;16.90;99.90;;;;;;4978849;28;20523;-96
2021/06/25 10:44:36;;;;;;;5.70;5.20;;;16.90;99.90;;;;;;4973950;28;20617;-90
2021/06/25 13:58:29;;;;;;;6.27;5.67;;;23.10;99.90;;;;;;4895605;29;20523;-94
2021/06/25 14:01:29;;;;;;;5.60;5.20;;;22.70;99.90;;;;;;4895895;29;20503;-92
2021/06/25 15:23:32;;;;;;;;;;;;;;;;;;;;;
2021/06/25 15:29:56;;;;;;;6.60;4.20;;;19.50;99.90;;;;;;4940207;28;20467;-91
2021/06/25 15:33:07;;;;;;;4.93;4.63;;;19.70;99.90;;;;;;4968060;28;20861;-91
2021/06/25 15:35:56;;;;;;;4.63;4.33;;;19.90;99.90;;;;;;4971935;28;20471;-91
2021/06/25 15:38:31;;;;;;;5.53;5.07;;;20.30;99.90;;;;;;4936993;28;20970;-90
2021/06/25 15:40:57;;;;;;;5.13;4.73;;;20.70;99.90;;;;;;4972539;28;20550;-91
2021/06/25 15:43:27;;;;;;;5.60;5.00;;;20.70;99.90;;;;;;4975953;28;21150;-92
2021/06/25 15:45:54;;;;;;;4.90;4.50;;;20.90;99.90;;;;;;4975022;28;20852;-92
2021/06/25 15:48:29;;;;;;;5.10;4.70;;;21.10;99.90;;;;;;4957409;28;20471;-91
2021/06/25 15:51:12;;;;;;;5.10;4.63;;;21.30;99.90;;;;;;4973633;28;20893;-91
2021/06/25 15:53:52;;;;;;;5.90;5.40;;;21.40;99.90;;;;;;4971016;28;20464;-91
2021/06/25 15:56:36;;;;;;;6.03;5.53;;;21.50;99.90;;;;;;4970727;28;20456;-91
2021/06/25 16:02:28;;;;;;;5.67;5.17;;;23.90;99.90;;;;;;4975889;28;20492;-92
2021/06/25 16:06:08;;;;;;;6.10;5.60;;;24.30;99.90;;;;;;4955576;28;20551;-91
2021/06/25 16:11:59;;;;;;;5.00;4.60;;;24.30;99.90;;;;;;4974756;28;20546;-92
2021/06/25 16:14:46;;;;;;;5.33;4.93;;;24.20;99.90;;;;;;4978720;28;20974;-93
2021/06/25 16:18:02;;;;;;;;;;;;;;;;;;;;;
2021/06/25 16:24:53;;;;;;;5.80;5.40;;;32.10;86.60;;;;;;4952947;28;20507;-91
2021/06/25 16:35:08;;;;;;;5.00;4.60;;;35.10;76.10;;;;;;4858437;29;20457;-91
2021/06/25 16:37:45;;;;;;;5.20;4.80;;;33.50;65.30;;;;;;4865767;29;20539;-92
2021/06/25 16:40:48;;;;;;;4.70;4.30;;;33.10;70.10;;;;;;4844692;29;20499;-93
2021/06/25 16:44:23;;;;;;;;;;;;;;;;;;;;;
2021/06/25 16:48:23;;;;;;;;;;;;;;;;;;;;;
2021/06/25 16:59:03;;;;;;;;;;;;;;;;;;;;;
2021/06/25 18:01:05;;;;;;;6.40;5.93;;;26.80;64.30;;;;;;4996592;28;21206;-94
2021/06/25 18:04:02;;;;;;;5.90;5.50;;;25.20;70.70;;;;;;4971668;28;20453;-94
2021/06/25 18:06:41;;;;;;;5.73;5.33;;;23.70;77.20;;;;;;4969618;28;20451;-93
2021/06/25 18:09:07;;;;;;;5.40;5.00;;;22.90;83.90;;;;;;4981204;28;20434;-95
2021/06/25 18:11:33;;;;;;;7.10;5.97;;;22.40;91.60;;;;;;4994028;28;20941;-94
2021/06/25 18:14:06;;;;;;;9.73;7.03;;;21.80;96.20;;;;;;4976995;28;20597;-93
2021/06/25 18:16:32;;;;;;;9.40;7.23;;;21.20;99.90;;;;;;4992250;28;20464;-94
2021/06/25 18:18:58;;;;;;;7.20;6.20;;;20.70;99.90;;;;;;4978938;28;20787;-94
2021/06/25 18:21:32;;;;;;;6.90;6.27;;;20.30;99.90;;;;;;4992649;28;20204;-94
2021/06/25 18:23:58;;;;;;;8.53;6.50;;;20.10;99.90;;;;;;4994886;28;20184;-94
2021/06/25 18:26:31;;;;;;;7.07;6.37;;;19.70;99.90;;;;;;4980842;28;20482;-94
2021/06/25 18:28:59;;;;;;;7.77;7.10;;;19.80;99.90;;;;;;4975827;28;20447;-96
2021/06/25 18:31:29;;;;;;;7.57;6.93;;;20.20;99.90;;;;;;4976080;28;20225;-93
2021/06/25 18:34:03;;;;;;;7.87;7.27;;;20.60;99.90;;;;;;4976549;28;20451;-94
2021/06/25 18:36:44;;;;;;;7.63;6.83;;;21.30;99.90;;;;;;4977713;28;20869;-94
2021/06/25 18:39:15;;;;;;;9.60;6.90;;;22.20;99.90;;;;;;4997358;28;20447;-94
2021/06/25 18:41:44;;;;;;;6.90;6.30;;;22.90;99.90;;;;;;4997117;28;20446;-94
2021/06/25 18:44:15;;;;;;;6.83;6.20;;;23.00;99.90;;;;;;4992634;28;20189;-94
2021/06/25 18:46:41;;;;;;;7.70;7.00;;;23.00;99.90;;;;;;4950370;28;20485;-94
2021/06/25 18:49:07;;;;;;;7.70;6.33;;;22.60;99.90;;;;;;4960087;28;21376;-94
2021/06/25 18:51:34;;;;;;;8.23;7.40;;;22.10;99.90;;;;;;4971465;28;20217;-95
2021/06/25 18:54:00;;;;;;;7.13;6.53;;;21.20;99.90;;;;;;4974654;28;20255;-94
2021/06/25 18:56:52;;;;;;;7.77;6.97;;;20.60;99.90;;;;;;4993406;28;20494;-94
2021/06/25 18:59:17;;;;;;;7.40;6.70;;;20.00;99.90;;;;;;4975181;28;20464;-94
2021/06/25 19:01:46;;;;;;;7.33;6.73;;;19.50;99.90;;;;;;4992375;28;20510;-92
2021/06/25 19:04:16;;;;;;;9.37;8.27;;;19.10;99.90;;;;;;4977391;28;20220;-95
2021/06/25 19:06:46;;;;;;;9.53;8.23;;;18.80;99.90;;;;;;4973923;28;20861;-94
2021/06/25 19:09:11;;;;;;;9.07;8.23;;;18.60;99.90;;;;;;4975649;28;20452;-93
2021/06/25 19:11:52;;;;;;;9.00;7.70;;;18.40;99.90;;;;;;4976696;28;20486;-93
2021/06/25 19:14:18;;;;;;;9.90;8.13;;;18.30;99.90;;;;;;4978639;28;20287;-94
2021/06/25 19:16:44;;;;;;;10.47;7.70;;;18.20;99.90;;;;;;4977503;28;20465;-94
2021/06/25 19:19:11;;;;;;;8.80;8.10;;;18.10;99.90;;;;;;4976954;28;20454;-94
2021/06/25 19:21:41;;;;;;;8.63;7.63;;;17.90;99.90;;;;;;4979447;28;20444;-94
2021/06/25 19:24:13;;;;;;;8.80;8.00;;;17.70;99.90;;;;;;4994104;28;20441;-93
2021/06/25 19:26:41;;;;;;;9.53;8.63;;;17.50;99.90;;;;;;4993234;28;20455;-93
2021/06/25 19:29:16;;;;;;;9.20;8.40;;;17.40;99.90;;;;;;4977285;28;20525;-94
2021/06/25 19:31:49;;;;;;;10.30;9.40;;;17.20;99.90;;;;;;4976886;28;20483;-93
2021/06/25 19:34:15;;;;;;;10.00;9.10;;;17.10;99.90;;;;;;4976724;28;20782;-94
2021/06/25 19:36:40;;;;;;;9.63;8.83;;;17.00;99.90;;;;;;4974625;28;21087;-91
2021/06/25 19:39:07;;;;;;;9.30;8.50;;;16.90;99.90;;;;;;4999817;28;20276;-92
2021/06/25 19:41:33;;;;;;;9.07;8.23;;;16.90;99.90;;;;;;4991220;28;20203;-93
2021/06/25 19:44:00;;;;;;;9.80;8.80;;;16.90;99.90;;;;;;4980583;28;20736;-92
2021/06/25 19:46:26;;;;;;;10.10;9.30;;;16.90;99.90;;;;;;4980570;28;20193;-92
2021/06/25 19:48:52;;;;;;;11.17;10.10;;;16.90;99.90;;;;;;4975823;28;20462;-93
2021/06/25 19:51:18;;;;;;;10.03;9.20;;;16.80;99.90;;;;;;4995525;28;20480;-91
2021/06/25 19:53:44;;;;;;;10.70;9.77;;;16.70;99.90;;;;;;4975812;28;20205;-93
2021/06/25 19:56:12;;;;;;;9.70;8.77;;;16.80;99.90;;;;;;4976680;28;20196;-91
2021/06/25 19:58:38;;;;;;;9.70;8.80;;;16.80;99.90;;;;;;4982857;28;20223;-92
2021/06/25 20:01:04;;;;;;;10.67;9.77;;;16.70;99.90;;;;;;4982712;28;20970;-92
2021/06/25 20:03:29;;;;;;;10.70;9.83;;;16.70;99.90;;;;;;4980946;28;20196;-92
2021/06/25 20:06:07;;;;;;;9.90;9.00;;;16.70;99.90;;;;;;4992020;28;20197;-93
2021/06/25 20:08:33;;;;;;;10.47;9.10;;;16.70;99.90;;;;;;4980054;28;20449;-92
2021/06/25 20:10:58;;;;;;;12.83;8.80;;;16.70;99.90;;;;;;4982082;28;20487;-92
2021/06/25 20:13:24;;;;;;;10.23;9.20;;;16.70;99.90;;;;;;4982112;28;20187;-92
2021/06/25 20:15:50;;;;;;;9.83;8.70;;;16.70;99.90;;;;;;4972683;28;20212;-93
2021/06/25 20:18:17;;;;;;;10.43;9.17;;;16.80;99.90;;;;;;4980410;28;20439;-93
2021/06/25 20:20:43;;;;;;;12.73;10.00;;;16.80;99.90;;;;;;4981497;28;20224;-93
2021/06/25 20:25:49;;;;;;;10.50;9.50;;;16.70;99.90;;;;;;4990893;28;20200;-93
2021/06/25 20:28:15;;;;;;;10.50;9.60;;;16.70;99.90;;;;;;4993273;28;20476;-93
2021/06/25 20:30:41;;;;;;;10.47;9.57;;;16.60;99.90;;;;;;4979490;28;20456;-93
2021/06/25 20:33:08;;;;;;;11.17;10.17;;;16.70;99.90;;;;;;4981731;28;20661;-92
2021/06/25 20:35:52;;;;;;;11.13;10.13;;;16.70;99.90;;;;;;4979807;28;20188;-93
2021/06/25 20:38:17;;;;;;;10.90;9.73;;;16.80;99.90;;;;;;4972555;28;20563;-91
2021/06/25 20:40:43;;;;;;;11.10;10.10;;;16.80;99.90;;;;;;4980339;28;20497;-92
2021/06/25 20:43:14;;;;;;;12.60;10.73;;;16.80;99.90;;;;;;4977042;28;21180;-93
2021/06/25 20:45:40;;;;;;;11.10;10.00;;;16.80;99.90;;;;;;4972115;28;20246;-92
2021/06/25 20:48:19;;;;;;;13.30;9.60;;;16.80;99.90;;;;;;4996615;28;20479;-93
2021/06/25 20:50:59;;;;;;;14.10;11.00;;;16.70;99.90;;;;;;4980969;28;22043;-94
2021/06/25 20:53:25;;;;;;;11.13;10.03;;;16.60;99.90;;;;;;4986830;28;20631;-93
2021/06/25 20:56:11;;;;;;;11.60;10.53;;;16.70;99.90;;;;;;5000535;28;20457;-91
2021/06/25 20:58:36;;;;;;;10.93;9.87;;;16.60;99.90;;;;;;4980717;28;20264;-91
2021/06/25 21:01:12;;;;;;;11.83;10.60;;;16.60;99.90;;;;;;4990973;28;20471;-91
2021/06/25 21:03:37;;;;;;;11.60;10.40;;;16.70;99.90;;;;;;4982903;28;20189;-91
2021/06/25 21:06:03;;;;;;;11.47;10.00;;;16.60;99.90;;;;;;4977611;28;20921;-92
2021/06/25 21:08:29;;;;;;;11.47;10.33;;;16.50;99.90;;;;;;4980623;28;20189;-91
2021/06/25 21:10:55;;;;;;;11.50;10.47;;;16.50;99.90;;;;;;4995486;28;20799;-90
2021/06/25 21:13:21;;;;;;;15.53;11.33;;;16.50;99.90;;;;;;5016533;28;20260;-93
2021/06/25 21:15:46;;;;;;;12.33;11.03;;;16.60;99.90;;;;;;4999004;28;20192;-92
2021/06/25 21:18:13;;;;;;;12.23;10.83;;;16.60;99.90;;;;;;4997143;28;20570;-92
2021/06/25 21:20:41;;;;;;;12.60;11.40;;;16.60;99.90;;;;;;4995278;28;20189;-90
2021/06/25 21:23:07;;;;;;;13.33;11.60;;;16.70;99.90;;;;;;4976351;28;20455;-91
2021/06/25 21:25:33;;;;;;;13.67;12.20;;;16.60;99.90;;;;;;4977579;28;20464;-91
2021/06/25 21:27:58;;;;;;;12.20;11.07;;;16.60;99.90;;;;;;4975952;28;20783;-90
2021/06/25 21:30:25;;;;;;;13.33;12.13;;;16.50;99.90;;;;;;4975559;28;20671;-91
2021/06/25 21:32:51;;;;;;;13.03;11.73;;;16.40;99.90;;;;;;4976423;28;20610;-91
2021/06/25 21:35:16;;;;;;;13.27;12.10;;;16.30;99.90;;;;;;4977525;28;20446;-91
2021/06/25 21:37:42;;;;;;;13.90;12.60;;;16.20;99.90;;;;;;4974365;28;20625;-92
2021/06/25 21:40:09;;;;;;;14.30;12.90;;;16.20;99.90;;;;;;4976753;28;20185;-92
2021/06/25 21:42:35;;;;;;;17.93;12.40;;;16.10;99.90;;;;;;4978667;28;20558;-92
2021/06/25 21:45:01;;;;;;;13.77;12.47;;;16.00;99.90;;;;;;4978361;28;20436;-93
2021/06/25 21:47:38;;;;;;;14.73;12.43;;;15.90;99.90;;;;;;4979546;28;20551;-92
2021/06/25 21:50:05;;;;;;;13.50;12.20;;;15.80;99.90;;;;;;4978391;28;20443;-92
2021/06/25 21:52:31;;;;;;;14.10;12.63;;;15.70;99.90;;;;;;4995678;28;20571;-91
2021/06/25 21:54:57;;;;;;;13.53;12.20;;;15.70;99.90;;;;;;4979243;28;20443;-90
2021/06/25 21:57:23;;;;;;;20.27;13.40;;;15.70;99.90;;;;;;4980300;28;20639;-91
2021/06/25 21:59:48;;;;;;;14.33;12.83;;;15.70;99.90;;;;;;4978253;28;20443;-91
2021/06/25 22:02:14;;;;;;;15.37;13.87;;;15.60;99.90;;;;;;4990041;28;20207;-91
2021/06/25 22:04:40;;;;;;;15.60;14.10;;;15.50;99.90;;;;;;4994025;28;20348;-91
2021/06/25 22:07:06;;;;;;;12.60;11.50;;;15.50;99.90;;;;;;4993467;28;20189;-91
2021/06/25 22:09:31;;;;;;;14.67;13.13;;;15.50;99.90;;;;;;4992013;28;20235;-91
2021/06/25 22:11:57;;;;;;;14.20;12.90;;;15.60;99.90;;;;;;4969044;28;20276;-91
2021/06/25 22:14:23;;;;;;;15.13;13.60;;;15.60;99.90;;;;;;4975526;28;20643;-91
2021/06/25 22:16:48;;;;;;;15.67;14.17;;;15.70;99.90;;;;;;4976757;28;20193;-91
2021/06/25 22:19:47;;;;;;;15.67;14.07;;;15.90;99.90;;;;;;4974830;28;20565;-90
2021/06/25 22:22:13;;;;;;;17.17;14.77;;;16.00;99.90;;;;;;4973903;28;20291;-90
2021/06/25 22:24:39;;;;;;;16.70;15.07;;;16.10;99.90;;;;;;4988504;28;20476;-90
2021/06/25 22:27:06;;;;;;;15.77;14.27;;;16.10;99.90;;;;;;4974628;28;20443;-91
2021/06/25 22:29:31;;;;;;;16.73;14.93;;;16.10;99.90;;;;;;4991676;28;20455;-91
2021/06/25 22:31:57;;;;;;;16.50;14.63;;;16.20;99.90;;;;;;4978435;28;20837;-91
2021/06/25 22:34:25;;;;;;;16.30;14.73;;;16.10;99.90;;;;;;4980767;28;20563;-91
2021/06/25 22:36:50;;;;;;;17.50;15.47;;;16.20;99.90;;;;;;4989639;28;20189;-91
2021/06/25 22:39:18;;;;;;;16.50;14.80;;;16.30;99.90;;;;;;4966456;28;20444;-91
2021/06/25 22:41:46;;;;;;;16.40;14.73;;;16.20;99.90;;;;;;4974017;28;20200;-92
2021/06/25 22:44:16;;;;;;;17.27;14.97;;;16.20;99.90;;;;;;4975485;28;20464;-93
2021/06/25 22:46:42;;;;;;;16.30;14.60;;;16.20;99.90;;;;;;4971662;28;20469;-92
2021/06/25 22:49:32;;;;;;;16.47;14.77;;;16.30;99.90;;;;;;4996623;28;20506;-93
2021/06/25 22:52:00;;;;;;;16.53;14.40;;;16.30;99.90;;;;;;4994485;28;20232;-92
2021/06/25 22:54:46;;;;;;;18.33;13.60;;;16.30;99.90;;;;;;4978627;28;20463;-92
2021/06/25 22:57:12;;;;;;;16.27;13.97;;;16.20;99.90;;;;;;4979514;28;20867;-91
2021/06/25 22:59:38;;;;;;;15.93;13.67;;;16.10;99.90;;;;;;4994442;28;20486;-91
2021/06/25 23:02:04;;;;;;;17.23;12.17;;;15.90;99.90;;;;;;4977617;28;20440;-91
2021/06/25 23:04:30;;;;;;;14.93;13.50;;;15.90;99.90;;;;;;4977177;28;20237;-92
2021/06/25 23:06:56;;;;;;;14.53;13.03;;;16.00;99.90;;;;;;4979602;28;20496;-91
2021/06/25 23:09:23;;;;;;;15.20;13.60;;;16.00;99.90;;;;;;4981805;28;20255;-92
2021/06/25 23:11:49;;;;;;;14.60;13.17;;;16.00;99.90;;;;;;4978117;28;20475;-92
2021/06/25 23:14:14;;;;;;;16.67;14.03;;;15.90;99.90;;;;;;4976818;28;20451;-92
2021/06/25 23:16:41;;;;;;;15.77;12.50;;;15.90;99.90;;;;;;4975158;28;20251;-92
2021/06/25 23:19:07;;;;;;;15.30;13.73;;;15.90;99.90;;;;;;4994750;28;20647;-91
2021/06/25 23:21:32;;;;;;;15.50;14.00;;;15.90;99.90;;;;;;4976447;28;20466;-91
2021/06/25 23:23:58;;;;;;;15.13;13.63;;;15.90;99.90;;;;;;4980415;28;20304;-91
2021/06/25 23:26:24;;;;;;;13.53;12.13;;;15.90;99.90;;;;;;4968893;28;20283;-92
2021/06/25 23:28:50;;;;;;;15.60;13.93;;;16.00;99.90;;;;;;4973091;28;20525;-92
2021/06/25 23:31:16;;;;;;;15.70;13.20;;;16.10;99.90;;;;;;4980784;28;20228;-91
2021/06/25 23:33:42;;;;;;;15.30;13.70;;;16.10;99.90;;;;;;4968233;28;20447;-92
2021/06/25 23:36:08;;;;;;;16.27;14.57;;;16.10;99.90;;;;;;4973588;28;20686;-91
2021/06/25 23:38:34;;;;;;;14.00;12.50;;;16.00;99.90;;;;;;4976526;28;20224;-91
2021/06/25 23:41:01;;;;;;;13.40;12.10;;;16.00;99.90;;;;;;4974741;28;20875;-91
2021/06/25 23:43:27;;;;;;;15.37;13.87;;;16.00;99.90;;;;;;4976540;28;20295;-91
2021/06/25 23:45:54;;;;;;;16.60;15.00;;;16.00;99.90;;;;;;4999127;28;20454;-91
2021/06/25 23:48:20;;;;;;;15.77;14.20;;;15.90;99.90;;;;;;4974467;28;20463;-90
2021/06/25 23:50:46;;;;;;;16.27;14.63;;;15.90;99.90;;;;;;4972983;28;20506;-91
2021/06/25 23:53:12;;;;;;;15.93;14.33;;;15.90;99.90;;;;;;4977701;28;20595;-91